Time;durP1;ratioP1;P1;durP2;ratioP2;P2;SDS_P1;SDS_P2;PMS_P1;PMS_P2;Temp;Humidity;BMP_temperature;BMP_pressure;BME280_temperature;BME280_humidity;BME280_pressure;Samples;Min_cycle;Max_cycle;Signal;HPM_P1;HPM_P2
2021/11/28 00:00:26;;;;;;;55.50;33.58;;;;;;;5.97;100.00;99329.53;5072283;28;20040;-69
2021/11/28 00:02:53;;;;;;;60.95;34.80;;;;;;;6.17;100.00;99360.16;5072902;28;20032;-67
2021/11/28 00:05:22;;;;;;;53.10;33.15;;;;;;;6.20;100.00;99367.97;5020649;28;20037;-68
2021/11/28 00:08:11;;;;;;;52.35;35.08;;;;;;;6.19;100.00;99356.81;5072417;28;20024;-68
2021/11/28 00:13:47;;;;;;;54.03;33.22;;;;;;;6.32;100.00;99369.28;4971515;28;20089;-69
2021/11/28 00:16:13;;;;;;;56.30;33.15;;;;;;;5.86;100.00;99275.31;4971432;28;20468;-69
2021/11/28 00:18:39;;;;;;;53.85;33.72;;;;;;;6.42;100.00;99369.63;4971399;28;20057;-68
2021/11/28 00:21:05;;;;;;;55.00;33.47;;;;;;;6.30;100.00;99368.34;4971318;28;20063;-69
2021/11/28 00:23:31;;;;;;;50.13;31.98;;;;;;;5.85;100.00;99288.94;4971129;28;20509;-69
2021/11/28 00:25:57;;;;;;;52.88;33.83;;;;;;;6.36;100.00;99377.94;4971155;28;20121;-69
2021/11/28 00:28:24;;;;;;;52.58;31.77;;;;;;;6.21;100.00;99379.97;4971176;28;20082;-68
2021/11/28 00:30:50;;;;;;;58.83;38.67;;;;;;;6.19;100.00;99377.31;4970785;28;20042;-69
2021/11/28 00:33:15;;;;;;;56.15;36.25;;;;;;;6.14;100.00;99368.59;4971135;28;20039;-69
2021/11/28 00:35:41;;;;;;;56.05;33.00;;;;;;;5.96;100.00;99374.75;4970897;28;20073;-69
2021/11/28 00:38:07;;;;;;;60.30;34.75;;;;;;;5.85;100.00;99381.16;4970903;28;20041;-67
2021/11/28 00:40:32;;;;;;;57.40;33.97;;;;;;;5.55;100.00;99348.44;4971028;28;20031;-69
2021/11/28 00:42:59;;;;;;;62.33;35.03;;;;;;;5.77;100.00;99368.06;4970825;28;20042;-67
2021/11/28 00:45:24;;;;;;;64.60;35.78;;;;;;;5.67;100.00;99343.78;4970810;28;20091;-68
2021/11/28 00:47:50;;;;;;;63.05;35.25;;;;;;;5.90;100.00;99371.09;4970911;28;20050;-67
2021/11/28 00:52:42;;;;;;;60.25;37.15;;;;;;;5.95;100.00;99360.19;5071691;28;20059;-69
2021/11/28 00:55:09;;;;;;;65.65;37.88;;;;;;;5.58;100.00;99286.22;5071835;28;20103;-64
2021/11/28 00:57:35;;;;;;;63.00;37.03;;;;;;;6.07;100.00;99348.69;5052884;28;20039;-69
2021/11/28 01:00:05;;;;;;;60.50;36.97;;;;;;;6.15;100.00;99344.72;5071762;28;20107;-69
2021/11/28 01:02:31;;;;;;;59.17;35.35;;;;;;;6.20;100.00;99342.34;5071556;28;20475;-69
2021/11/28 01:04:56;;;;;;;59.75;36.00;;;;;;;6.21;100.00;99339.81;5071292;28;20028;-67
2021/11/28 01:07:22;;;;;;;54.40;35.55;;;;;;;6.21;100.00;99332.13;5071762;28;20097;-69
2021/11/28 01:09:48;;;;;;;61.85;35.95;;;;;;;6.29;100.00;99320.47;5080541;28;20019;-69
2021/11/28 01:12:13;;;;;;;54.70;35.40;;;;;;;6.45;100.00;99338.94;5091573;28;20024;-69
2021/11/28 01:14:39;;;;;;;55.92;34.65;;;;;;;6.02;100.00;99255.41;5091586;28;20124;-67
2021/11/28 01:17:06;;;;;;;53.88;33.47;;;;;;;6.45;100.00;99309.03;5091961;28;20469;-70
2021/11/28 01:19:33;;;;;;;55.63;33.63;;;;;;;6.50;100.00;99292.97;5091169;28;20085;-73
2021/11/28 01:22:05;;;;;;;56.85;35.90;;;;;;;6.37;100.00;99278.84;5091843;28;20024;-67
2021/11/28 01:24:31;;;;;;;55.17;35.05;;;;;;;6.36;100.00;99290.78;5073665;28;20493;-68
2021/11/28 01:26:58;;;;;;;60.17;35.83;;;;;;;6.26;100.00;99301.53;5091682;28;20028;-69
2021/11/28 01:29:24;;;;;;;59.58;34.45;;;;;;;6.20;100.00;99286.81;5091417;28;20039;-68
2021/11/28 01:31:50;;;;;;;59.63;37.05;;;;;;;6.22;100.00;99280.06;5091695;28;20115;-67
2021/11/28 01:34:15;;;;;;;57.78;36.67;;;;;;;6.35;100.00;99265.97;5091369;28;20078;-69
2021/11/28 01:36:40;;;;;;;61.20;37.90;;;;;;;6.30;100.00;99245.28;5091653;28;20554;-66
2021/11/28 01:39:09;;;;;;;63.85;38.50;;;;;;;6.14;100.00;99209.72;5091454;28;20064;-68
2021/11/28 01:41:36;;;;;;;59.40;37.33;;;;;;;6.26;100.00;99227.22;5092250;28;20035;-67
2021/11/28 01:44:01;;;;;;;69.15;44.20;;;;;;;6.43;100.00;99238.03;5095763;28;20032;-71
2021/11/28 01:46:28;;;;;;;64.93;40.47;;;;;;;6.37;100.00;99238.72;5095272;28;20139;-74
2021/11/28 01:48:54;;;;;;;71.43;39.78;;;;;;;6.25;100.00;99218.63;5095488;28;20032;-67
2021/11/28 01:51:20;;;;;;;57.30;35.70;;;;;;;5.96;100.00;99154.44;5095629;28;20048;-66
2021/11/28 01:53:49;;;;;;;56.42;33.38;;;;;;;6.28;100.00;99215.31;5093261;28;20079;-67
2021/11/28 01:56:16;;;;;;;57.88;34.70;;;;;;;6.18;100.00;99185.97;5095540;28;20024;-69
2021/11/28 01:58:43;;;;;;;61.50;35.80;;;;;;;6.22;100.00;99228.81;5095162;28;20028;-68
2021/11/28 02:01:12;;;;;;;54.72;33.17;;;;;;;5.89;100.00;99156.75;5095153;28;20024;-68
2021/11/28 02:03:40;;;;;;;56.88;34.08;;;;;;;5.46;100.00;99151.00;5076617;28;20040;-68
2021/11/28 02:06:08;;;;;;;54.60;33.67;;;;;;;5.55;100.00;99240.91;5076866;28;20032;-68
2021/11/28 02:08:34;;;;;;;58.47;35.15;;;;;;;5.57;100.00;99211.13;5095218;28;20118;-69
2021/11/28 02:11:00;;;;;;;62.58;36.63;;;;;;;5.75;100.00;99220.28;5095189;28;20127;-68
2021/11/28 02:13:26;;;;;;;84.00;60.05;;;;;;;5.44;100.00;99216.59;5094867;28;20081;-67
2021/11/28 02:15:52;;;;;;;61.58;39.70;;;;;;;5.44;100.00;99230.25;5094673;28;20423;-67
2021/11/28 02:18:17;;;;;;;58.38;34.80;;;;;;;5.22;100.00;99233.72;5094897;28;20078;-72
2021/11/28 02:20:52;;;;;;;55.75;34.63;;;;;;;5.16;100.00;99220.69;5094982;28;20027;-68
2021/11/28 02:23:17;;;;;;;57.38;34.47;;;;;;;5.18;100.00;99221.59;5076064;28;20040;-73
2021/11/28 02:25:44;;;;;;;62.70;34.05;;;;;;;5.20;100.00;99219.97;5094613;28;20020;-69
2021/11/28 02:28:09;;;;;;;59.80;35.35;;;;;;;5.04;100.00;99207.44;5094846;28;20107;-67
2021/11/28 02:30:35;;;;;;;59.20;34.58;;;;;;;5.19;100.00;99224.22;5094806;28;20106;-66
2021/11/28 02:33:01;;;;;;;60.38;33.97;;;;;;;5.33;100.00;99244.34;5094727;28;20036;-66
2021/11/28 02:35:30;;;;;;;59.75;34.30;;;;;;;5.32;100.00;99234.91;5094681;28;20521;-68
2021/11/28 02:37:57;;;;;;;52.92;33.63;;;;;;;4.68;100.00;99124.22;5094709;28;20032;-66
2021/11/28 02:40:24;;;;;;;54.22;32.38;;;;;;;5.42;100.00;99231.91;5094514;28;20063;-67
2021/11/28 02:42:51;;;;;;;54.53;33.63;;;;;;;5.49;100.00;99243.25;5094407;28;20032;-68
2021/11/28 02:45:19;;;;;;;52.50;32.45;;;;;;;5.33;100.00;99235.00;5094447;28;20400;-70
2021/11/28 02:47:45;;;;;;;52.47;32.05;;;;;;;5.42;100.00;99243.81;5075883;28;20135;-70
2021/11/28 02:50:14;;;;;;;55.15;32.20;;;;;;;5.49;100.00;99238.13;5076147;28;20123;-67
2021/11/28 02:52:41;;;;;;;53.72;33.45;;;;;;;5.61;100.00;99255.63;5094027;28;20418;-67
2021/11/28 02:55:07;;;;;;;55.20;32.95;;;;;;;5.45;100.00;99206.41;5094136;28;20478;-67
2021/11/28 02:57:33;;;;;;;53.58;34.22;;;;;;;5.70;100.00;99232.91;5074928;28;20490;-67
2021/11/28 02:59:59;;;;;;;52.42;30.65;;;;;;;5.56;100.00;99217.06;5094211;28;20099;-66
2021/11/28 03:02:24;;;;;;;45.80;28.73;;;;;;;5.66;100.00;99247.28;5094102;28;20060;-67
2021/11/28 03:04:50;;;;;;;48.35;30.92;;;;;;;5.70;100.00;99229.50;5094034;28;20076;-67
2021/11/28 03:07:18;;;;;;;48.08;31.67;;;;;;;5.80;100.00;99226.44;5094081;28;20035;-66
2021/11/28 03:09:44;;;;;;;53.92;31.83;;;;;;;5.69;100.00;99191.91;5075916;28;20509;-66
2021/11/28 03:12:10;;;;;;;49.17;30.98;;;;;;;5.72;100.00;99202.25;5093753;28;20024;-69
2021/11/28 03:14:35;;;;;;;44.22;28.90;;;;;;;5.81;100.00;99193.19;5094145;28;20035;-70
2021/11/28 03:17:01;;;;;;;45.55;29.48;;;;;;;5.85;100.00;99191.63;5094036;28;20028;-69
2021/11/28 03:19:26;;;;;;;44.22;29.85;;;;;;;5.75;100.00;99161.38;5093702;28;20406;-73
2021/11/28 03:21:52;;;;;;;52.30;31.38;;;;;;;5.53;100.00;99146.94;5093633;28;20184;-68
2021/11/28 03:24:17;;;;;;;47.13;29.05;;;;;;;5.54;100.00;99169.19;5093759;28;20032;-69
2021/11/28 03:26:44;;;;;;;47.55;29.48;;;;;;;5.76;100.00;99191.31;5092984;28;20024;-68
2021/11/28 03:29:21;;;;;;;47.13;30.30;;;;;;;5.65;100.00;99193.47;5075427;28;20028;-69
2021/11/28 03:31:50;;;;;;;48.67;31.25;;;;;;;4.68;100.00;99091.84;5093349;28;20060;-70
2021/11/28 03:34:17;;;;;;;58.35;38.33;;;;;;;5.25;100.00;99198.00;5093484;28;20111;-68
2021/11/28 03:36:49;;;;;;;83.80;47.38;;;;;;;5.25;100.00;99194.56;5093292;28;20028;-69
2021/11/28 03:39:16;;;;;;;53.00;33.83;;;;;;;5.15;100.00;99201.03;5093349;28;20056;-67
2021/11/28 03:41:44;;;;;;;51.92;31.95;;;;;;;5.12;100.00;99200.91;5093257;28;20032;-69
2021/11/28 03:44:10;;;;;;;54.78;36.17;;;;;;;5.15;100.00;99188.25;5093387;28;20101;-69
2021/11/28 03:46:36;;;;;;;55.30;38.13;;;;;;;5.31;100.00;99200.78;5092854;28;20060;-72
2021/11/28 03:49:03;;;;;;;45.30;29.33;;;;;;;5.26;100.00;99215.09;5092750;28;20147;-68
2021/11/28 03:51:29;;;;;;;44.75;27.58;;;;;;;5.11;100.00;99209.38;5093292;28;20130;-69
2021/11/28 03:53:54;;;;;;;46.97;27.67;;;;;;;5.01;100.00;99209.03;5092793;28;20107;-67
2021/11/28 03:56:20;;;;;;;44.25;27.08;;;;;;;5.18;100.00;99208.81;5093091;28;20128;-69
2021/11/28 03:58:45;;;;;;;41.03;27.42;;;;;;;4.72;100.00;99114.97;5093227;28;20106;-69
2021/11/28 04:01:14;;;;;;;45.65;27.95;;;;;;;5.28;100.00;99202.34;5084032;28;20103;-68
2021/11/28 04:03:40;;;;;;;46.33;27.92;;;;;;;4.88;100.00;99122.41;5073017;28;20025;-68
2021/11/28 04:06:06;;;;;;;48.05;29.50;;;;;;;5.18;100.00;99183.22;5071608;28;20393;-69
2021/11/28 04:08:32;;;;;;;47.67;27.13;;;;;;;4.80;100.00;99116.16;5072253;28;20403;-69
2021/11/28 04:10:58;;;;;;;44.45;27.52;;;;;;;5.08;100.00;99209.28;5072575;28;20062;-69
2021/11/28 04:13:24;;;;;;;47.58;28.05;;;;;;;5.08;100.00;99214.38;5072744;28;20111;-69
2021/11/28 04:15:49;;;;;;;44.22;26.60;;;;;;;4.92;100.00;99203.56;5072489;28;20131;-68
2021/11/28 04:18:15;;;;;;;48.45;28.30;;;;;;;4.36;100.00;99145.16;5072236;28;20512;-68
2021/11/28 04:20:42;;;;;;;48.10;28.83;;;;;;;4.35;100.00;99127.22;5071997;28;20402;-69
2021/11/28 04:23:08;;;;;;;49.58;28.13;;;;;;;4.99;100.00;99233.69;5072244;28;20106;-68
2021/11/28 04:25:34;;;;;;;53.42;29.50;;;;;;;4.97;100.00;99217.41;5054359;28;20417;-73
2021/11/28 04:28:00;;;;;;;56.90;30.90;;;;;;;5.00;100.00;99212.41;5072271;28;20032;-70
2021/11/28 04:30:26;;;;;;;70.22;30.33;;;;;;;5.07;100.00;99218.66;5072096;28;20457;-67
2021/11/28 04:32:52;;;;;;;68.32;32.70;;;;;;;5.06;100.00;99221.13;5072004;28;20056;-69
2021/11/28 04:35:18;;;;;;;67.10;30.45;;;;;;;4.88;100.00;99201.69;5071630;28;20024;-69
2021/11/28 04:37:44;;;;;;;75.07;33.28;;;;;;;5.03;100.00;99232.09;5054214;28;20036;-69
2021/11/28 04:40:10;;;;;;;71.53;34.15;;;;;;;5.02;100.00;99233.81;5072195;28;20032;-68
2021/11/28 04:42:36;;;;;;;78.28;34.78;;;;;;;5.07;100.00;99225.44;5072058;28;20051;-69
2021/11/28 04:45:03;;;;;;;77.93;34.08;;;;;;;5.10;100.00;99223.88;5071763;28;20043;-69
2021/11/28 04:47:29;;;;;;;70.32;34.42;;;;;;;5.07;100.00;99213.53;5071605;28;20068;-68
2021/11/28 04:49:54;;;;;;;73.35;35.45;;;;;;;5.06;100.00;99208.34;5071526;28;20087;-69
2021/11/28 04:52:20;;;;;;;70.75;34.05;;;;;;;5.07;100.00;99207.53;5071617;28;20036;-69
2021/11/28 04:54:45;;;;;;;69.13;32.63;;;;;;;5.11;100.00;99222.16;5071896;28;20082;-67
2021/11/28 04:57:11;;;;;;;79.75;34.58;;;;;;;5.20;100.00;99250.69;5071805;28;20025;-68
2021/11/28 04:59:36;;;;;;;71.28;34.75;;;;;;;5.25;100.00;99264.53;5071604;28;20032;-68
2021/11/28 05:02:02;;;;;;;62.83;34.55;;;;;;;5.07;100.00;99277.50;5071579;28;20032;-68
2021/11/28 05:04:28;;;;;;;73.00;35.20;;;;;;;4.47;100.00;99200.91;5071251;28;20029;-69
2021/11/28 05:06:54;;;;;;;109.47;52.78;;;;;;;4.92;100.00;99300.75;5071593;28;20486;-70
2021/11/28 05:09:20;;;;;;;136.93;39.55;;;;;;;5.00;100.00;99339.44;5071949;28;20039;-69
2021/11/28 05:11:45;;;;;;;153.02;36.28;;;;;;;4.98;100.00;99353.84;5071494;28;20028;-69
2021/11/28 05:14:12;;;;;;;153.80;30.55;;;;;;;4.66;100.00;99325.22;5071356;28;20517;-70
2021/11/28 05:16:38;;;;;;;245.88;38.72;;;;;;;4.54;100.00;99317.94;5070400;28;20132;-69
2021/11/28 05:19:04;;;;;;;195.15;37.95;;;;;;;4.65;100.00;99328.63;5071283;28;20517;-70
2021/11/28 05:21:29;;;;;;;208.50;40.22;;;;;;;4.77;100.00;99348.69;5071499;28;20024;-69
2021/11/28 05:23:55;;;;;;;186.43;39.00;;;;;;;4.74;100.00;99352.00;5071625;28;20036;-68
2021/11/28 05:26:22;;;;;;;171.27;38.83;;;;;;;4.94;100.00;99368.19;5071460;28;20119;-69
2021/11/28 05:28:47;;;;;;;105.78;40.28;;;;;;;4.86;100.00;99360.19;5052711;28;20044;-71
2021/11/28 05:31:17;;;;;;;113.18;39.85;;;;;;;4.98;100.00;99364.94;5071249;28;20024;-72
2021/11/28 05:33:46;;;;;;;92.65;36.85;;;;;;;4.95;100.00;99356.28;5070782;28;20433;-70
2021/11/28 05:36:12;;;;;;;93.70;37.35;;;;;;;5.00;100.00;99354.78;5071425;28;20112;-71
2021/11/28 05:38:38;;;;;;;89.43;36.50;;;;;;;5.10;100.00;99366.28;5052687;28;20051;-71
2021/11/28 05:41:04;;;;;;;83.80;35.40;;;;;;;5.20;100.00;99365.81;5071254;28;20033;-70
2021/11/28 05:43:30;;;;;;;82.65;35.40;;;;;;;5.22;100.00;99365.88;5071093;28;20086;-72
2021/11/28 05:45:55;;;;;;;80.90;35.05;;;;;;;5.30;100.00;99396.09;5052350;28;20127;-74
2021/11/28 05:48:21;;;;;;;78.30;34.88;;;;;;;5.28;100.00;99413.09;5070566;28;20029;-70
2021/11/28 05:50:48;;;;;;;78.10;33.83;;;;;;;5.18;100.00;99411.81;5071204;28;20051;-70
2021/11/28 05:53:15;;;;;;;79.43;33.03;;;;;;;4.89;100.00;99400.38;5085937;28;20072;-70
2021/11/28 05:55:41;;;;;;;90.05;35.80;;;;;;;4.91;100.00;99420.88;5071089;28;20028;-73
2021/11/28 05:58:06;;;;;;;93.70;35.28;;;;;;;5.13;100.00;99422.66;5070968;28;20028;-75
2021/11/28 06:00:32;;;;;;;95.38;36.97;;;;;;;4.73;100.00;99318.72;5085828;28;20037;-71
2021/11/28 06:02:58;;;;;;;113.47;35.83;;;;;;;5.28;100.00;99407.97;5070515;28;20032;-72
2021/11/28 06:05:23;;;;;;;120.18;38.90;;;;;;;5.33;100.00;99397.91;5071192;28;20493;-72
2021/11/28 06:07:48;;;;;;;94.75;34.30;;;;;;;5.37;100.00;99391.22;5074909;28;20034;-73
2021/11/28 06:10:14;;;;;;;113.90;33.75;;;;;;;5.31;100.00;99382.47;5084638;28;20075;-71
2021/11/28 06:12:39;;;;;;;106.82;33.13;;;;;;;5.43;100.00;99394.03;5082435;28;20089;-73
2021/11/28 06:15:05;;;;;;;121.80;36.50;;;;;;;5.43;100.00;99384.69;5071543;28;20067;-72
2021/11/28 06:17:31;;;;;;;86.90;34.80;;;;;;;5.34;100.00;99362.13;5090533;28;20055;-71
2021/11/28 06:19:56;;;;;;;105.07;35.92;;;;;;;5.45;100.00;99388.16;5091124;28;20028;-72
2021/11/28 06:22:22;;;;;;;117.50;37.33;;;;;;;5.48;100.00;99401.09;5084642;28;20052;-72
2021/11/28 06:24:47;;;;;;;93.53;36.70;;;;;;;5.46;100.00;99423.19;5069291;28;20633;-72
2021/11/28 06:27:13;;;;;;;114.70;38.85;;;;;;;4.49;100.00;99275.97;5070275;28;20406;-73
2021/11/28 06:29:39;;;;;;;97.00;40.75;;;;;;;5.28;100.00;99410.53;5073619;28;20057;-74
2021/11/28 06:32:05;;;;;;;107.50;42.53;;;;;;;5.13;100.00;99371.50;5073009;28;20024;-70
2021/11/28 06:34:30;;;;;;;120.80;45.50;;;;;;;5.27;100.00;99385.75;5073751;28;20028;-71
2021/11/28 06:36:56;;;;;;;106.90;44.20;;;;;;;5.17;100.00;99394.72;5073621;28;20020;-71
2021/11/28 06:39:22;;;;;;;102.95;43.65;;;;;;;5.34;100.00;99413.31;5073526;28;20390;-71
2021/11/28 06:41:47;;;;;;;112.70;44.90;;;;;;;4.80;100.00;99321.56;5075376;28;20032;-72
2021/11/28 06:44:13;;;;;;;126.72;45.13;;;;;;;5.44;100.00;99437.59;5082093;28;20032;-71
2021/11/28 06:46:39;;;;;;;108.60;44.17;;;;;;;5.50;100.00;99434.41;5094051;28;20035;-73
2021/11/28 06:49:04;;;;;;;105.15;45.20;;;;;;;5.56;100.00;99436.34;5094107;28;20028;-69
2021/11/28 06:51:30;;;;;;;113.63;47.70;;;;;;;5.59;100.00;99437.34;5086744;28;20059;-70
2021/11/28 06:53:55;;;;;;;111.90;46.63;;;;;;;5.37;100.00;99406.56;5073747;28;20028;-69
2021/11/28 06:56:21;;;;;;;116.30;51.90;;;;;;;5.54;100.00;99432.88;5072948;28;20033;-68
2021/11/28 06:58:46;;;;;;;118.35;51.05;;;;;;;5.64;100.00;99428.16;5073401;28;20033;-70
2021/11/28 07:01:12;;;;;;;109.80;50.30;;;;;;;5.33;100.00;99357.84;5072552;28;20031;-69
2021/11/28 07:03:38;;;;;;;102.68;49.72;;;;;;;5.81;100.00;99435.66;5073191;28;20020;-70
2021/11/28 07:06:04;;;;;;;124.70;59.95;;;;;;;5.59;100.00;99383.56;5072757;28;20017;-70
2021/11/28 07:08:30;;;;;;;106.75;51.10;;;;;;;5.92;100.00;99426.69;5078350;28;20028;-71
2021/11/28 07:10:56;;;;;;;112.43;49.50;;;;;;;5.91;100.00;99429.19;5054723;28;20040;-70
2021/11/28 07:13:23;;;;;;;98.90;47.60;;;;;;;5.89;100.00;99436.81;5090757;28;20528;-71
2021/11/28 07:15:49;;;;;;;106.93;49.92;;;;;;;5.48;100.00;99342.22;5093611;28;20056;-71
2021/11/28 07:18:15;;;;;;;97.93;47.00;;;;;;;6.01;100.00;99422.75;5093983;28;20393;-71
2021/11/28 07:20:40;;;;;;;97.97;47.10;;;;;;;6.08;100.00;99441.00;5093905;28;20406;-70
2021/11/28 07:23:06;;;;;;;101.80;48.75;;;;;;;6.05;100.00;99424.63;5093830;28;20110;-71
2021/11/28 07:25:32;;;;;;;101.65;49.30;;;;;;;6.14;100.00;99437.78;5093617;28;20053;-71
2021/11/28 07:27:57;;;;;;;103.55;48.90;;;;;;;6.23;100.00;99440.72;5075497;28;20134;-71
2021/11/28 07:30:24;;;;;;;100.28;46.08;;;;;;;5.36;100.00;99282.88;5093421;28;20107;-71
2021/11/28 07:32:49;;;;;;;115.55;49.55;;;;;;;6.06;100.00;99417.00;5093741;28;20501;-71
2021/11/28 07:35:15;;;;;;;114.03;48.70;;;;;;;6.29;100.00;99468.25;5093603;28;20020;-71
2021/11/28 07:37:41;;;;;;;114.88;48.45;;;;;;;6.36;100.00;99459.13;5093159;28;20031;-71
2021/11/28 07:40:07;;;;;;;115.97;47.08;;;;;;;6.02;100.00;99393.75;5092356;28;20031;-71
2021/11/28 07:42:32;;;;;;;125.82;49.60;;;;;;;6.34;100.00;99432.53;5093621;28;20054;-72
2021/11/28 07:44:58;;;;;;;156.98;53.70;;;;;;;6.50;100.00;99475.88;5093170;28;20493;-72
2021/11/28 07:47:24;;;;;;;140.43;51.40;;;;;;;6.64;100.00;99463.56;5093282;28;20043;-72
2021/11/28 07:49:49;;;;;;;156.00;52.33;;;;;;;6.31;100.00;99389.72;5093333;28;20055;-72
2021/11/28 07:52:15;;;;;;;164.93;53.50;;;;;;;6.37;100.00;99401.88;5092687;28;20032;-72
2021/11/28 07:54:40;;;;;;;150.75;53.22;;;;;;;6.81;100.00;99477.00;5093015;28;20047;-73
2021/11/28 07:57:06;;;;;;;166.43;53.97;;;;;;;6.66;100.00;99467.06;5093002;28;20075;-73
2021/11/28 07:59:33;;;;;;;139.48;53.28;;;;;;;6.50;100.00;99426.28;5093039;28;20028;-70
2021/11/28 08:02:00;;;;;;;136.07;52.15;;;;;;;6.92;100.00;99482.53;5093170;28;20032;-70
2021/11/28 08:04:26;;;;;;;130.57;54.40;;;;;;;6.81;100.00;99471.88;5092766;28;20473;-70
2021/11/28 08:06:51;;;;;;;132.77;52.42;;;;;;;6.79;100.00;99460.66;5092774;28;20024;-70
2021/11/28 08:09:17;;;;;;;131.60;56.08;;;;;;;7.15;100.00;99501.28;5092870;28;20064;-70
2021/11/28 08:11:42;;;;;;;124.40;52.42;;;;;;;7.29;100.00;99489.81;5092806;28;20066;-70
2021/11/28 08:14:08;;;;;;;112.13;52.13;;;;;;;7.35;100.00;99501.09;5092128;28;20035;-70
2021/11/28 08:16:33;;;;;;;110.13;53.58;;;;;;;7.37;100.00;99499.47;5092585;28;20028;-70
2021/11/28 08:18:59;;;;;;;104.80;51.75;;;;;;;7.00;100.00;99426.34;5092790;28;20024;-70
2021/11/28 08:21:27;;;;;;;104.03;50.95;;;;;;;7.36;100.00;99474.59;5092721;28;20405;-70
2021/11/28 08:23:58;;;;;;;99.53;51.67;;;;;;;7.68;100.00;99496.22;5092549;28;20031;-71
2021/11/28 08:26:24;;;;;;;93.88;47.40;;;;;;;7.73;100.00;99492.09;5092344;28;20028;-71
2021/11/28 08:28:50;;;;;;;98.50;50.00;;;;;;;7.91;100.00;99501.22;5092313;28;20039;-72
2021/11/28 08:31:15;;;;;;;93.50;48.83;;;;;;;7.76;100.00;99474.25;5092508;28;20027;-71
2021/11/28 08:33:41;;;;;;;90.13;48.80;;;;;;;7.67;100.00;99452.50;5092338;28;20032;-72
2021/11/28 08:36:07;;;;;;;90.63;47.05;;;;;;;7.92;100.00;99482.41;5092239;28;20477;-72
2021/11/28 08:38:32;;;;;;;93.32;50.67;;;;;;;8.17;100.00;99491.75;5092222;28;20031;-72
2021/11/28 08:40:58;;;;;;;85.05;47.88;;;;;;;8.25;100.00;99507.44;5092086;28;20401;-71
2021/11/28 08:43:24;;;;;;;84.35;47.25;;;;;;;8.26;100.00;99496.31;5092052;28;20036;-72
2021/11/28 08:45:50;;;;;;;97.30;47.75;;;;;;;8.34;100.00;99494.00;5056457;28;20055;-72
2021/11/28 08:48:16;;;;;;;92.35;46.47;;;;;;;8.16;100.00;99454.06;5092182;28;20525;-71
2021/11/28 08:50:42;;;;;;;101.00;45.88;;;;;;;7.98;100.00;99402.09;5091893;28;20468;-71
2021/11/28 08:53:07;;;;;;;102.65;49.33;;;;;;;8.54;100.00;99487.75;5092052;28;20500;-71
2021/11/28 08:55:33;;;;;;;100.10;47.10;;;;;;;8.66;100.00;99487.25;5073877;28;20073;-71
2021/11/28 08:57:59;;;;;;;100.38;48.05;;;;;;;8.71;100.00;99480.53;5073951;28;20093;-71
2021/11/28 09:00:25;;;;;;;87.00;42.33;;;;;;;8.77;100.00;99476.38;5091926;28;20028;-71
2021/11/28 09:02:51;;;;;;;112.00;50.67;;;;;;;8.64;100.00;99460.59;5092011;28;20059;-70
2021/11/28 09:05:19;;;;;;;106.78;50.90;;;;;;;8.93;100.00;99496.56;5073734;28;20052;-71
2021/11/28 09:07:47;;;;;;;108.30;48.50;;;;;;;8.99;100.00;99485.59;5073815;28;20440;-71
2021/11/28 09:10:14;;;;;;;129.25;51.97;;;;;;;9.02;100.00;99480.50;5091674;28;20478;-71
2021/11/28 09:12:41;;;;;;;141.18;57.25;;;;;;;8.93;100.00;99475.97;5091860;28;20382;-71
2021/11/28 09:15:06;;;;;;;142.30;59.15;;;;;;;8.92;100.00;99492.25;5091757;28;20497;-71
2021/11/28 09:17:32;;;;;;;151.40;58.25;;;;;;;8.93;100.00;99509.44;5073611;28;20112;-72
2021/11/28 09:20:07;;;;;;;166.10;65.72;;;;;;;8.95;100.00;99501.75;5091518;28;20027;-71
2021/11/28 09:25:19;;;;;;;159.90;63.80;;;;;;;9.03;100.00;99492.56;5009424;28;20053;-72
2021/11/28 09:27:47;;;;;;;171.50;64.80;;;;;;;8.84;100.00;99444.84;5009149;28;20046;-71
2021/11/28 09:30:14;;;;;;;172.90;63.42;;;;;;;9.15;100.00;99484.31;5009366;28;20049;-71
2021/11/28 09:32:40;;;;;;;176.20;62.97;;;;;;;8.81;100.00;99421.59;4976795;28;20049;-71
2021/11/28 09:35:06;;;;;;;191.55;68.78;;;;;;;9.03;100.00;99441.06;5009441;28;20419;-71
2021/11/28 09:37:33;;;;;;;177.18;68.88;;;;;;;9.17;100.00;99452.59;5009312;28;20041;-71
2021/11/28 09:39:59;;;;;;;176.30;65.85;;;;;;;8.87;100.00;99396.91;5009288;28;20112;-71
2021/11/28 09:42:37;;;;;;;180.68;68.40;;;;;;;9.03;100.00;99425.63;4992906;28;20448;-71
2021/11/28 09:45:03;;;;;;;179.88;67.38;;;;;;;9.27;100.00;99466.59;5009358;28;20034;-71
2021/11/28 09:47:32;;;;;;;168.43;67.28;;;;;;;9.48;100.00;99486.00;5009142;28;20125;-71
2021/11/28 09:49:58;;;;;;;162.70;67.38;;;;;;;9.58;100.00;99481.94;5009291;28;20050;-72
2021/11/28 09:52:26;;;;;;;149.02;56.90;;;;;;;9.70;100.00;99479.69;5009444;28;20038;-71
2021/11/28 09:55:00;;;;;;;171.57;64.60;;;;;;;9.26;100.00;99403.03;5009132;28;20041;-70
2021/11/28 09:57:27;;;;;;;144.52;63.55;;;;;;;9.76;100.00;99479.84;5009130;28;20026;-71
2021/11/28 09:59:55;;;;;;;140.98;61.53;;;;;;;9.92;100.00;99495.66;5009178;28;20057;-72
2021/11/28 10:02:26;;;;;;;129.07;58.45;;;;;;;9.98;100.00;99482.91;5048772;28;20443;-72
2021/11/28 10:04:53;;;;;;;110.43;54.70;;;;;;;9.95;100.00;99457.06;5095179;28;20370;-73
2021/11/28 10:07:19;;;;;;;111.70;55.17;;;;;;;10.30;100.00;99475.03;5095212;28;20036;-72
2021/11/28 10:09:46;;;;;;;100.53;52.63;;;;;;;10.18;100.00;99409.44;5095203;28;20043;-73
2021/11/28 10:12:15;;;;;;;107.45;53.20;;;;;;;10.57;100.00;99479.09;5042651;28;20394;-72
2021/11/28 10:14:42;;;;;;;87.37;45.67;;;;;;;10.61;100.00;99475.72;5095052;28;20036;-72
2021/11/28 10:17:08;;;;;;;91.53;48.55;;;;;;;10.37;100.00;99407.28;5095067;28;20363;-73
2021/11/28 10:19:36;;;;;;;85.55;47.45;;;;;;;10.76;100.00;99429.56;5095067;28;20024;-72
2021/11/28 10:22:03;;;;;;;78.38;42.03;;;;;;;10.55;100.00;99372.38;5095220;28;20078;-73
2021/11/28 10:24:29;;;;;;;87.45;45.03;;;;;;;10.92;100.00;99420.41;5094709;28;20114;-73
2021/11/28 10:27:08;;;;;;;80.10;44.78;;;;;;;11.11;100.00;99431.94;5094728;28;20421;-72
2021/11/28 10:29:38;;;;;;;87.65;43.80;;;;;;;10.91;100.00;99398.00;5094657;28;20044;-73
2021/11/28 10:32:06;;;;;;;78.55;44.58;;;;;;;11.05;100.00;99405.97;5094712;28;20035;-72
2021/11/28 10:34:41;;;;;;;79.97;41.60;;;;;;;11.20;100.00;99414.84;5094755;28;20070;-71
2021/11/28 10:37:15;;;;;;;72.60;40.88;;;;;;;11.31;100.00;99424.56;5094592;28;20030;-72
2021/11/28 10:39:46;;;;;;;80.25;43.00;;;;;;;11.30;100.00;99438.31;5094295;28;20059;-71
2021/11/28 10:42:30;;;;;;;74.07;41.50;;;;;;;11.03;100.00;99381.88;5076124;28;20032;-72
2021/11/28 10:44:59;;;;;;;71.78;40.90;;;;;;;11.29;100.00;99417.59;5094636;28;20111;-72
2021/11/28 10:47:51;;;;;;;74.10;41.33;;;;;;;11.06;100.00;99376.72;5094371;28;20032;-73
2021/11/28 10:50:23;;;;;;;66.43;37.92;;;;;;;11.37;100.00;99403.09;5075198;28;20278;-73
2021/11/28 10:52:52;;;;;;;67.18;36.03;;;;;;;10.99;100.00;99305.16;5094447;28;20096;-72
2021/11/28 10:55:22;;;;;;;69.95;38.78;;;;;;;11.32;100.00;99322.06;5094382;28;20046;-73
2021/11/28 10:58:04;;;;;;;62.22;35.55;;;;;;;11.98;100.00;99391.97;5094327;28;20024;-72
2021/11/28 11:00:30;;;;;;;63.40;33.10;;;;;;;12.18;100.00;99393.97;5094058;28;20516;-72
2021/11/28 11:02:55;;;;;;;54.30;32.47;;;;;;;12.24;100.00;99400.09;5093914;28;20113;-72
2021/11/28 11:05:25;;;;;;;50.80;28.48;;;;;;;12.10;100.00;99366.28;5094232;28;20410;-72
2021/11/28 11:07:54;;;;;;;50.92;29.35;;;;;;;12.43;100.00;99401.16;5094243;28;20031;-71
2021/11/28 11:10:25;;;;;;;50.55;29.77;;;;;;;11.95;100.00;99301.34;5093677;28;20032;-71
2021/11/28 11:12:52;;;;;;;41.80;24.27;;;;;;;12.43;100.00;99393.41;5093803;28;20031;-71
2021/11/28 11:15:49;;;;;;;38.50;24.23;;;;;;;12.43;100.00;99397.72;5093654;28;20474;-71
2021/11/28 11:18:18;;;;;;;43.78;27.70;;;;;;;12.45;100.00;99396.91;4992092;28;20046;-70
2021/11/28 11:20:46;;;;;;;53.33;33.95;;;;;;;12.43;100.00;99380.47;4991978;28;20101;-71